Time;durP1;ratioP1;P1;durP2;ratioP2;P2;SDS_P1;SDS_P2;PMS_P1;PMS_P2;Temp;Humidity;BMP_temperature;BMP_pressure;BME280_temperature;BME280_humidity;BME280_pressure;Samples;Min_cycle;Max_cycle;Signal;HPM_P1;HPM_P2
2021/12/18 09:07:45;;;;;;;17.47;3.63;;;;;;;;;;5153104;27;1185298;-84
2021/12/18 09:10:12;;;;;;;11.00;3.13;;;;;;;;;;5154119;27;20397;-83
2021/12/18 09:12:38;;;;;;;9.38;3.75;;;;;;;;;;5169924;27;20039;-84
2021/12/18 09:15:04;;;;;;;14.05;3.08;;;;;;;;;;5133267;27;20059;-84
2021/12/18 09:17:30;;;;;;;14.02;3.67;;;;;;;;;;5151610;27;20375;-83
2021/12/18 09:19:56;;;;;;;12.15;3.72;;;;;;;;;;5132893;27;20038;-84
2021/12/18 09:22:22;;;;;;;13.55;3.25;;;;;;;;;;5151835;27;20039;-84
2021/12/18 09:24:48;;;;;;;11.65;3.35;;;;;;;;;;5151763;27;20053;-84
2021/12/18 09:27:17;;;;;;;22.98;4.38;;;;;;;;;;5133065;27;20474;-84
2021/12/18 09:29:43;;;;;;;10.20;3.05;;;;;;;;;;5132835;27;20420;-84
2021/12/18 09:32:09;;;;;;;13.20;2.83;;;;;;;;;;5151633;27;20042;-84
2021/12/18 09:34:35;;;;;;;8.57;2.58;;;;;;;;;;5151378;27;20038;-85
2021/12/18 09:37:01;;;;;;;12.95;3.00;;;;;;;;;;5132993;27;20095;-84
2021/12/18 09:39:28;;;;;;;12.07;2.53;;;;;;;;;;5132691;27;20122;-84
2021/12/18 09:41:54;;;;;;;11.52;2.95;;;;;;;;;;5151502;27;20038;-85
2021/12/18 09:44:24;;;;;;;9.95;2.30;;;;;;;;;;5132427;27;20047;-84
2021/12/18 09:46:50;;;;;;;8.55;2.67;;;;;;;;;;5137910;27;20542;-83
2021/12/18 09:49:16;;;;;;;9.88;2.53;;;;;;;;;;5132416;27;20042;-85
2021/12/18 09:51:42;;;;;;;8.00;2.17;;;;;;;;;;5132583;27;20047;-84
2021/12/18 09:54:08;;;;;;;10.32;2.40;;;;;;;;;;5132223;27;20054;-85
2021/12/18 09:56:34;;;;;;;13.48;2.80;;;;;;;;;;5132724;27;20042;-84
2021/12/18 09:59:00;;;;;;;18.38;3.30;;;;;;;;;;5132364;27;20043;-85
2021/12/18 10:01:27;;;;;;;11.20;2.38;;;;;;;;;;5132642;27;20176;-90
2021/12/18 10:03:58;;;;;;;11.82;2.45;;;;;;;;;;5132134;27;20066;-84
2021/12/18 10:06:42;;;;;;;9.70;2.60;;;;;;;;;;5150988;27;20055;-84
2021/12/18 10:09:28;;;;;;;11.02;2.30;;;;;;;;;;5132275;27;20445;-83
2021/12/18 10:11:56;;;;;;;10.02;2.42;;;;;;;;;;5132303;27;20039;-85
2021/12/18 10:14:40;;;;;;;12.15;2.40;;;;;;;;;;5150348;27;20046;-85
2021/12/18 10:17:18;;;;;;;10.95;2.40;;;;;;;;;;5130283;27;20118;-86
2021/12/18 10:19:44;;;;;;;11.77;2.75;;;;;;;;;;5136632;27;20409;-86
2021/12/18 10:22:11;;;;;;;10.60;2.40;;;;;;;;;;5118265;27;20051;-85
2021/12/18 10:24:38;;;;;;;12.52;3.70;;;;;;;;;;5118164;27;20039;-84
2021/12/18 10:27:17;;;;;;;11.35;3.20;;;;;;;;;;5136712;27;20043;-85
2021/12/18 10:29:43;;;;;;;12.10;2.80;;;;;;;;;;5118123;27;20074;-85
2021/12/18 10:32:10;;;;;;;8.55;2.65;;;;;;;;;;5118297;27;20045;-84
2021/12/18 10:34:37;;;;;;;10.98;2.72;;;;;;;;;;5117745;27;20088;-85
2021/12/18 10:37:09;;;;;;;12.40;3.72;;;;;;;;;;5118263;27;20110;-85
2021/12/18 10:39:36;;;;;;;9.32;2.88;;;;;;;;;;5117750;27;20047;-84
2021/12/18 10:42:19;;;;;;;11.73;3.25;;;;;;;;;;5117833;27;20054;-84
2021/12/18 10:45:04;;;;;;;11.85;3.20;;;;;;;;;;5117713;27;20095;-83
2021/12/18 10:47:50;;;;;;;11.73;3.08;;;;;;;;;;5117743;27;20043;-86
2021/12/18 10:50:17;;;;;;;10.18;2.80;;;;;;;;;;5084184;27;20078;-84
2021/12/18 10:52:43;;;;;;;11.27;3.17;;;;;;;;;;5117524;27;20376;-85
2021/12/18 10:55:09;;;;;;;10.55;3.15;;;;;;;;;;5117481;27;20043;-85
2021/12/18 10:57:35;;;;;;;10.75;3.17;;;;;;;;;;5136001;27;20039;-85
2021/12/18 11:00:01;;;;;;;9.48;3.50;;;;;;;;;;5116929;27;20546;-85
2021/12/18 11:02:27;;;;;;;7.63;2.40;;;;;;;;;;5136005;27;20114;-84
2021/12/18 11:05:12;;;;;;;8.00;2.40;;;;;;;;;;5142554;27;20076;-82
2021/12/18 11:07:42;;;;;;;12.75;3.60;;;;;;;;;;5139059;27;20058;-83
2021/12/18 11:15:50;;;;;;;9.38;3.22;;;;;;;;;;5135675;27;20042;-84
2021/12/18 11:18:17;;;;;;;7.50;2.55;;;;;;;;;;5117174;27;20050;-84
2021/12/18 11:20:43;;;;;;;17.40;3.03;;;;;;;;;;5117096;27;20087;-84
2021/12/18 11:23:09;;;;;;;9.43;2.90;;;;;;;;;;5135672;27;20051;-85
2021/12/18 11:25:39;;;;;;;11.65;2.58;;;;;;;;;;5135414;27;20046;-84
2021/12/18 11:28:06;;;;;;;10.57;2.55;;;;;;;;;;5100164;27;20042;-85
2021/12/18 11:30:32;;;;;;;9.80;2.65;;;;;;;;;;5116436;27;20046;-84
2021/12/18 11:32:59;;;;;;;11.82;3.78;;;;;;;;;;5135480;27;20075;-84
2021/12/18 11:35:25;;;;;;;12.15;3.05;;;;;;;;;;5135335;27;20064;-84
2021/12/18 11:37:51;;;;;;;13.00;2.38;;;;;;;;;;5135521;27;20167;-85
2021/12/18 11:40:24;;;;;;;14.02;2.75;;;;;;;;;;5139192;27;20059;-84
2021/12/18 11:42:50;;;;;;;10.85;3.10;;;;;;;;;;5135197;27;20061;-85
2021/12/18 11:45:16;;;;;;;10.23;2.95;;;;;;;;;;5116492;27;20035;-85
2021/12/18 11:47:44;;;;;;;9.38;2.80;;;;;;;;;;5134936;27;20046;-85
2021/12/18 11:50:18;;;;;;;7.63;3.10;;;;;;;;;;5134899;27;20062;-84
2021/12/18 11:53:03;;;;;;;8.97;2.80;;;;;;;;;;5134940;27;20035;-84
2021/12/18 11:55:31;;;;;;;11.23;2.40;;;;;;;;;;5134905;27;20122;-84
2021/12/18 11:57:59;;;;;;;7.18;2.35;;;;;;;;;;5135043;27;20042;-84
2021/12/18 12:00:32;;;;;;;9.18;2.05;;;;;;;;;;5134880;27;20035;-84
2021/12/18 12:02:59;;;;;;;8.82;2.08;;;;;;;;;;5116301;27;20039;-84
2021/12/18 12:05:36;;;;;;;12.15;3.03;;;;;;;;;;5116336;27;20158;-85
2021/12/18 12:08:22;;;;;;;9.90;2.10;;;;;;;;;;5116252;27;20055;-84
2021/12/18 12:10:49;;;;;;;;;;;;;;;;;;5135057;27;20045;-83
2021/12/18 12:13:16;;;;;;;8.40;2.10;;;;;;;;;;5116097;27;19916;-85
2021/12/18 12:15:52;;;;;;;8.57;2.97;;;;;;;;;;5134380;27;20036;-84
2021/12/18 12:18:18;;;;;;;8.63;2.45;;;;;;;;;;5134439;27;20039;-83
2021/12/18 12:20:48;;;;;;;8.55;2.30;;;;;;;;;;5116048;27;20073;-83
2021/12/18 12:23:15;;;;;;;9.73;3.72;;;;;;;;;;5134602;27;20420;-85
2021/12/18 12:25:45;;;;;;;10.65;2.22;;;;;;;;;;5115920;27;20126;-84
2021/12/18 12:28:13;;;;;;;8.82;3.00;;;;;;;;;;5134538;27;20046;-85
2021/12/18 12:30:44;;;;;;;11.65;3.67;;;;;;;;;;5134410;27;20039;-85
2021/12/18 12:33:29;;;;;;;9.82;2.20;;;;;;;;;;5115749;27;20039;-84
2021/12/18 12:35:58;;;;;;;10.30;2.30;;;;;;;;;;5134335;27;20046;-84
2021/12/18 12:38:26;;;;;;;12.30;2.70;;;;;;;;;;5115736;27;20047;-85
2021/12/18 12:40:56;;;;;;;10.85;2.38;;;;;;;;;;5133924;27;20039;-84
2021/12/18 12:43:25;;;;;;;8.85;2.35;;;;;;;;;;5115863;27;20039;-84
2021/12/18 12:45:54;;;;;;;8.77;2.47;;;;;;;;;;5115379;27;20379;-84
2021/12/18 12:48:21;;;;;;;11.10;2.40;;;;;;;;;;5099008;28;20078;-84
2021/12/18 12:50:58;;;;;;;12.50;2.45;;;;;;;;;;5115821;27;20046;-84
2021/12/18 12:53:44;;;;;;;10.25;2.10;;;;;;;;;;5134344;27;20039;-85
2021/12/18 12:56:14;;;;;;;10.73;2.95;;;;;;;;;;5115421;27;20055;-84
2021/12/18 12:58:40;;;;;;;12.25;2.40;;;;;;;;;;5115480;27;20079;-84
2021/12/18 13:01:06;;;;;;;8.63;2.50;;;;;;;;;;5114465;27;20150;-84
2021/12/18 13:03:32;;;;;;;9.32;2.50;;;;;;;;;;5115743;28;20049;-84
2021/12/18 13:06:00;;;;;;;13.50;3.45;;;;;;;;;;5133293;27;20502;-83
2021/12/18 13:08:26;;;;;;;9.00;2.50;;;;;;;;;;5115264;28;20130;-85
2021/12/18 13:10:54;;;;;;;9.10;2.88;;;;;;;;;;5133689;28;20119;-84
2021/12/18 13:13:22;;;;;;;10.52;2.80;;;;;;;;;;5115495;28;20547;-84
2021/12/18 13:15:51;;;;;;;8.82;2.72;;;;;;;;;;5115105;28;20092;-83
2021/12/18 13:18:17;;;;;;;9.80;2.92;;;;;;;;;;5115274;28;20050;-84
2021/12/18 13:20:44;;;;;;;18.90;3.95;;;;;;;;;;5115156;28;20046;-84
2021/12/18 13:23:17;;;;;;;12.00;3.60;;;;;;;;;;5133729;27;20094;-84
2021/12/18 13:25:50;;;;;;;13.90;3.67;;;;;;;;;;5115409;28;20051;-85
2021/12/18 13:28:16;;;;;;;11.70;2.60;;;;;;;;;;5115309;28;20039;-85
2021/12/18 13:30:42;;;;;;;9.73;3.58;;;;;;;;;;5119447;28;20047;-84
2021/12/18 13:33:08;;;;;;;12.23;3.58;;;;;;;;;;5133863;27;20036;-84
2021/12/18 13:35:36;;;;;;;10.77;3.05;;;;;;;;;;5133615;28;20035;-85
2021/12/18 13:38:10;;;;;;;10.20;2.92;;;;;;;;;;5114901;28;20042;-84
2021/12/18 13:40:44;;;;;;;9.00;3.40;;;;;;;;;;5133528;28;20081;-85
2021/12/18 13:43:10;;;;;;;14.45;3.25;;;;;;;;;;5133197;27;20529;-84
2021/12/18 13:45:54;;;;;;;11.68;3.63;;;;;;;;;;5098054;28;20043;-84
2021/12/18 13:48:31;;;;;;;11.73;2.97;;;;;;;;;;5133157;28;20548;-85
2021/12/18 13:51:08;;;;;;;9.75;3.17;;;;;;;;;;5133630;28;20032;-84
2021/12/18 13:53:35;;;;;;;12.27;3.70;;;;;;;;;;5135717;27;20040;-84
2021/12/18 13:56:05;;;;;;;10.23;3.65;;;;;;;;;;5137195;27;20419;-84
2021/12/18 13:58:37;;;;;;;12.98;3.42;;;;;;;;;;5118933;27;20050;-85
2021/12/18 14:01:03;;;;;;;9.05;2.70;;;;;;;;;;5118692;27;20070;-84
2021/12/18 14:03:50;;;;;;;10.95;3.08;;;;;;;;;;5118481;27;20085;-85
2021/12/18 14:06:16;;;;;;;8.60;2.60;;;;;;;;;;5114657;28;20126;-83
2021/12/18 14:08:43;;;;;;;9.98;3.00;;;;;;;;;;5115241;28;20078;-84
2021/12/18 14:11:11;;;;;;;14.02;3.58;;;;;;;;;;5115110;28;20510;-83
2021/12/18 14:13:45;;;;;;;10.00;2.92;;;;;;;;;;5116120;28;20513;-84
2021/12/18 14:16:12;;;;;;;11.30;2.97;;;;;;;;;;5116684;28;20031;-83
2021/12/18 14:18:39;;;;;;;12.02;2.83;;;;;;;;;;5114817;28;20058;-84
2021/12/18 14:21:06;;;;;;;9.60;3.33;;;;;;;;;;5115196;28;20047;-83
2021/12/18 14:23:33;;;;;;;12.30;2.90;;;;;;;;;;5114679;28;20048;-83
2021/12/18 14:26:15;;;;;;;11.90;3.00;;;;;;;;;;5116342;28;20043;-84
2021/12/18 14:28:42;;;;;;;9.52;2.90;;;;;;;;;;5114880;28;20542;-84
2021/12/18 14:31:23;;;;;;;10.18;3.05;;;;;;;;;;5114719;28;20375;-84
2021/12/18 14:33:57;;;;;;;8.18;2.75;;;;;;;;;;5114358;28;20130;-84
2021/12/18 14:36:40;;;;;;;10.68;2.92;;;;;;;;;;5116153;28;20382;-83
2021/12/18 14:39:06;;;;;;;8.93;2.70;;;;;;;;;;5115789;28;20046;-84
2021/12/18 14:41:35;;;;;;;12.75;2.80;;;;;;;;;;5114760;28;20127;-84
2021/12/18 14:44:01;;;;;;;8.10;2.72;;;;;;;;;;5097404;28;20043;-85
2021/12/18 14:46:27;;;;;;;8.80;2.70;;;;;;;;;;5114429;28;20047;-85
2021/12/18 14:48:53;;;;;;;10.15;2.70;;;;;;;;;;5114557;28;20043;-85
2021/12/18 14:51:26;;;;;;;10.35;2.55;;;;;;;;;;5115852;28;20040;-83
2021/12/18 14:53:58;;;;;;;8.18;2.40;;;;;;;;;;5115568;28;20071;-84
2021/12/18 14:56:24;;;;;;;12.00;3.13;;;;;;;;;;5115152;28;20040;-84
2021/12/18 14:58:50;;;;;;;11.88;2.83;;;;;;;;;;5115269;28;20049;-83
2021/12/18 15:01:20;;;;;;;9.52;3.63;;;;;;;;;;5115320;28;20039;-84
2021/12/18 15:03:54;;;;;;;10.23;3.70;;;;;;;;;;5114131;28;20040;-83
2021/12/18 15:06:38;;;;;;;11.82;4.28;;;;;;;;;;5114042;28;20092;-84
2021/12/18 15:09:08;;;;;;;10.63;3.42;;;;;;;;;;5097192;28;20352;-85
2021/12/18 15:11:45;;;;;;;7.53;2.97;;;;;;;;;;5113887;28;20039;-84
2021/12/18 15:14:11;;;;;;;12.07;3.40;;;;;;;;;;5115154;28;20043;-83
2021/12/18 15:16:44;;;;;;;9.40;2.22;;;;;;;;;;5113780;28;20043;-84
2021/12/18 15:19:12;;;;;;;10.68;2.60;;;;;;;;;;5115130;28;20050;-84
2021/12/18 15:21:39;;;;;;;11.90;2.03;;;;;;;;;;5115053;28;20035;-84
2021/12/18 15:24:06;;;;;;;6.97;2.15;;;;;;;;;;5113518;28;20471;-84
2021/12/18 15:26:33;;;;;;;9.55;2.30;;;;;;;;;;5113603;28;20040;-85
2021/12/18 15:29:00;;;;;;;10.45;1.95;;;;;;;;;;5113465;28;20036;-86
2021/12/18 15:31:26;;;;;;;8.27;1.95;;;;;;;;;;5113536;28;20089;-84
2021/12/18 15:33:53;;;;;;;11.45;2.08;;;;;;;;;;5113341;28;20044;-85
2021/12/18 15:36:19;;;;;;;7.03;2.83;;;;;;;;;;5117345;28;20131;-83
2021/12/18 15:38:45;;;;;;;6.32;2.30;;;;;;;;;;5117780;28;20050;-84
2021/12/18 15:41:11;;;;;;;8.05;2.92;;;;;;;;;;5113470;28;20123;-83
2021/12/18 15:43:38;;;;;;;7.45;2.30;;;;;;;;;;5114349;28;20486;-84
2021/12/18 15:46:04;;;;;;;8.13;2.70;;;;;;;;;;5113105;28;20482;-84
2021/12/18 15:48:30;;;;;;;9.57;2.60;;;;;;;;;;5112999;28;20509;-84
2021/12/18 15:50:56;;;;;;;9.52;2.00;;;;;;;;;;5096325;28;20478;-85
2021/12/18 15:53:22;;;;;;;8.55;3.55;;;;;;;;;;5112837;28;20043;-85
2021/12/18 15:55:48;;;;;;;13.57;2.40;;;;;;;;;;5114399;28;20085;-83
2021/12/18 15:58:15;;;;;;;11.32;2.40;;;;;;;;;;5112878;28;20187;-84
2021/12/18 16:00:42;;;;;;;6.90;2.13;;;;;;;;;;5112910;28;20047;-84
2021/12/18 16:03:08;;;;;;;9.90;1.73;;;;;;;;;;5114082;28;20036;-84
2021/12/18 16:05:36;;;;;;;6.38;2.30;;;;;;;;;;5113152;28;20526;-85
2021/12/18 16:08:04;;;;;;;7.28;1.90;;;;;;;;;;5135180;27;20139;-85
2021/12/18 16:10:31;;;;;;;8.20;3.10;;;;;;;;;;5134857;27;20076;-85
2021/12/18 16:12:57;;;;;;;7.15;2.45;;;;;;;;;;5134433;27;20060;-85
2021/12/18 16:15:23;;;;;;;7.95;2.58;;;;;;;;;;5115703;27;20039;-86
2021/12/18 16:17:49;;;;;;;11.90;3.00;;;;;;;;;;5116114;27;20485;-87
2021/12/18 16:20:16;;;;;;;11.55;3.78;;;;;;;;;;5116005;27;20039;-86
2021/12/18 16:22:42;;;;;;;8.73;3.33;;;;;;;;;;5116155;27;20039;-83
2021/12/18 16:25:09;;;;;;;11.35;2.92;;;;;;;;;;5116194;27;20054;-85
2021/12/18 16:27:35;;;;;;;8.32;2.53;;;;;;;;;;5115798;27;20394;-85
2021/12/18 16:30:01;;;;;;;6.40;2.70;;;;;;;;;;5134104;27;20419;-86
2021/12/18 16:32:28;;;;;;;11.30;3.03;;;;;;;;;;5115727;27;20039;-85
2021/12/18 16:34:54;;;;;;;11.10;3.47;;;;;;;;;;5115563;27;20035;-85
2021/12/18 16:37:21;;;;;;;8.85;2.97;;;;;;;;;;5134390;27;20042;-84
2021/12/18 16:39:49;;;;;;;10.88;3.80;;;;;;;;;;5134271;27;20043;-87
2021/12/18 16:42:15;;;;;;;10.88;4.28;;;;;;;;;;5115999;27;20035;-85
2021/12/18 16:44:41;;;;;;;8.95;2.90;;;;;;;;;;5115561;28;20051;-85
2021/12/18 16:47:08;;;;;;;8.18;3.17;;;;;;;;;;5115474;27;20045;-83
2021/12/18 16:49:34;;;;;;;12.77;3.88;;;;;;;;;;5133988;27;20160;-84
2021/12/18 16:52:00;;;;;;;9.35;3.97;;;;;;;;;;5116011;28;20042;-86
2021/12/18 16:54:26;;;;;;;9.35;4.00;;;;;;;;;;5133710;27;20034;-87
2021/12/18 16:56:52;;;;;;;8.18;4.15;;;;;;;;;;5115487;27;20511;-85
2021/12/18 16:59:18;;;;;;;7.80;4.20;;;;;;;;;;5115289;28;20043;-87
2021/12/18 17:01:45;;;;;;;10.13;3.83;;;;;;;;;;5115333;28;20383;-87
2021/12/18 17:04:16;;;;;;;10.40;4.25;;;;;;;;;;5115191;28;20096;-86
2021/12/18 17:06:42;;;;;;;7.90;3.65;;;;;;;;;;5115230;28;20093;-87
2021/12/18 17:09:08;;;;;;;11.25;3.92;;;;;;;;;;5115435;28;20385;-86
2021/12/18 17:11:34;;;;;;;13.10;4.15;;;;;;;;;;5115377;28;20039;-87
2021/12/18 17:14:00;;;;;;;9.38;3.95;;;;;;;;;;5133587;27;20043;-88
2021/12/18 17:16:26;;;;;;;8.27;4.15;;;;;;;;;;5116952;28;20087;-85
2021/12/18 17:18:52;;;;;;;8.27;3.38;;;;;;;;;;5117665;28;20046;-87
2021/12/18 17:21:18;;;;;;;9.73;3.47;;;;;;;;;;5133777;28;20035;-86
2021/12/18 17:23:44;;;;;;;7.70;3.30;;;;;;;;;;5115317;28;20431;-85
2021/12/18 17:26:11;;;;;;;8.43;3.22;;;;;;;;;;5115123;28;20086;-86
2021/12/18 17:28:37;;;;;;;8.32;3.83;;;;;;;;;;5135871;27;20039;-87
2021/12/18 17:31:04;;;;;;;7.55;3.78;;;;;;;;;;5102591;27;20047;-85
2021/12/18 17:33:29;;;;;;;8.85;3.90;;;;;;;;;;5137349;27;20038;-87
2021/12/18 17:35:55;;;;;;;8.90;4.55;;;;;;;;;;5119488;27;20035;-86
2021/12/18 17:38:22;;;;;;;10.85;6.22;;;;;;;;;;5137703;27;20500;-86
2021/12/18 17:40:48;;;;;;;10.55;5.65;;;;;;;;;;5119137;27;20036;-86
2021/12/18 17:43:14;;;;;;;10.93;6.70;;;;;;;;;;5119202;27;20047;-87
2021/12/18 17:45:40;;;;;;;8.27;5.65;;;;;;;;;;5118706;27;20118;-86
2021/12/18 17:48:06;;;;;;;12.35;6.60;;;;;;;;;;5119062;27;20066;-86
2021/12/18 17:50:33;;;;;;;16.25;8.57;;;;;;;;;;5118824;27;20031;-86
2021/12/18 17:52:59;;;;;;;13.15;7.72;;;;;;;;;;5137328;27;20067;-86
2021/12/18 17:55:25;;;;;;;11.55;5.80;;;;;;;;;;5137120;27;20069;-86
2021/12/18 17:57:52;;;;;;;17.13;8.35;;;;;;;;;;5118790;27;20049;-85
2021/12/18 18:00:19;;;;;;;7.82;4.15;;;;;;;;;;5118586;27;20100;-86
2021/12/18 18:02:45;;;;;;;6.20;2.95;;;;;;;;;;5118789;27;20043;-87
2021/12/18 18:05:11;;;;;;;4.20;2.00;;;;;;;;;;5137088;27;20053;-85
2021/12/18 18:07:40;;;;;;;3.35;1.40;;;;;;;;;;5118310;27;20054;-85
2021/12/18 18:10:07;;;;;;;4.68;1.60;;;;;;;;;;5118500;27;20046;-86
2021/12/18 18:12:33;;;;;;;4.18;1.42;;;;;;;;;;5118554;27;20035;-85
2021/12/18 18:14:59;;;;;;;4.10;1.77;;;;;;;;;;5118306;27;20122;-86
2021/12/18 18:17:26;;;;;;;5.40;2.00;;;;;;;;;;5118399;27;20074;-85
2021/12/18 18:19:54;;;;;;;5.65;2.30;;;;;;;;;;5118189;27;20039;-86
2021/12/18 18:22:20;;;;;;;5.13;1.90;;;;;;;;;;5136867;27;20047;-87
2021/12/18 18:24:46;;;;;;;5.63;2.20;;;;;;;;;;5136590;27;20121;-85
2021/12/18 18:27:12;;;;;;;6.20;1.80;;;;;;;;;;5118194;27;20051;-85
2021/12/18 18:29:38;;;;;;;5.50;1.80;;;;;;;;;;5118299;27;20375;-86
2021/12/18 18:32:05;;;;;;;4.78;2.13;;;;;;;;;;5136706;27;20035;-87
2021/12/18 18:34:31;;;;;;;5.82;2.75;;;;;;;;;;5136381;27;20070;-85
2021/12/18 18:36:57;;;;;;;5.68;2.75;;;;;;;;;;5118020;27;20078;-85
2021/12/18 18:39:23;;;;;;;6.22;3.20;;;;;;;;;;5117311;27;20112;-85
2021/12/18 18:41:49;;;;;;;7.47;3.88;;;;;;;;;;5117921;27;20448;-86
2021/12/18 18:44:16;;;;;;;6.80;3.60;;;;;;;;;;5117836;27;20066;-86
2021/12/18 18:46:47;;;;;;;10.30;4.07;;;;;;;;;;5100898;27;20039;-86
2021/12/18 18:49:13;;;;;;;6.82;3.42;;;;;;;;;;5117728;27;20039;-86
2021/12/18 18:51:45;;;;;;;9.48;6.47;;;;;;;;;;5118009;27;20051;-86
2021/12/18 18:54:14;;;;;;;9.82;5.72;;;;;;;;;;5135761;27;20039;-87
2021/12/18 18:56:40;;;;;;;7.47;4.32;;;;;;;;;;5100555;27;20494;-85
2021/12/18 18:59:07;;;;;;;8.63;3.80;;;;;;;;;;5117612;27;20039;-85
2021/12/18 19:01:33;;;;;;;9.18;4.80;;;;;;;;;;5117331;27;20122;-85
2021/12/18 19:03:59;;;;;;;6.90;3.60;;;;;;;;;;5117675;27;20043;-86
2021/12/18 19:06:26;;;;;;;8.38;4.45;;;;;;;;;;5117200;27;20051;-85
2021/12/18 19:08:52;;;;;;;12.48;6.22;;;;;;;;;;5117465;27;20043;-85
2021/12/18 19:11:20;;;;;;;11.20;6.40;;;;;;;;;;5122145;27;20103;-85
2021/12/18 19:13:46;;;;;;;9.70;6.05;;;;;;;;;;5100382;27;20042;-86
2021/12/18 19:16:12;;;;;;;9.63;5.53;;;;;;;;;;5135737;27;20322;-86
2021/12/18 19:18:49;;;;;;;9.57;6.53;;;;;;;;;;5117252;27;20141;-85
2021/12/18 19:21:17;;;;;;;12.60;7.55;;;;;;;;;;5117404;27;20434;-87
2021/12/18 19:23:43;;;;;;;16.58;8.68;;;;;;;;;;5117142;27;20114;-85
2021/12/18 19:26:09;;;;;;;13.82;8.07;;;;;;;;;;5117107;27;20457;-86
2021/12/18 19:28:36;;;;;;;10.57;5.88;;;;;;;;;;5117086;27;20043;-85
2021/12/18 19:31:02;;;;;;;12.70;6.68;;;;;;;;;;5117070;27;20031;-85
2021/12/18 19:33:28;;;;;;;11.65;6.50;;;;;;;;;;5135558;27;20064;-86
2021/12/18 19:35:55;;;;;;;13.02;7.28;;;;;;;;;;5116779;27;20043;-87
2021/12/18 19:38:21;;;;;;;12.20;5.85;;;;;;;;;;5135493;27;20035;-86
2021/12/18 19:40:47;;;;;;;10.85;6.07;;;;;;;;;;5135633;27;20088;-86
2021/12/18 19:43:13;;;;;;;11.10;5.75;;;;;;;;;;5135335;27;20035;-85
2021/12/18 19:45:40;;;;;;;10.63;6.35;;;;;;;;;;5135013;27;20447;-86
2021/12/18 19:48:06;;;;;;;11.63;6.18;;;;;;;;;;5135047;27;20050;-88
2021/12/18 19:50:32;;;;;;;13.30;7.10;;;;;;;;;;5115777;27;20039;-85
2021/12/18 19:52:58;;;;;;;11.75;6.10;;;;;;;;;;5116567;27;20039;-87
2021/12/18 19:55:25;;;;;;;12.65;7.25;;;;;;;;;;5116552;27;20555;-86
2021/12/18 19:57:53;;;;;;;10.82;5.78;;;;;;;;;;5116533;27;20043;-86
2021/12/18 20:00:20;;;;;;;10.05;5.93;;;;;;;;;;5134688;27;20047;-85
2021/12/18 20:05:25;;;;;;;10.02;4.95;;;;;;;;;;5134629;27;20061;-88
2021/12/18 20:07:51;;;;;;;8.57;4.25;;;;;;;;;;5116142;27;20062;-85
2021/12/18 20:10:18;;;;;;;8.07;4.05;;;;;;;;;;5134598;27;20065;-86
2021/12/18 20:12:44;;;;;;;14.43;9.52;;;;;;;;;;5134655;27;20367;-86
2021/12/18 20:15:12;;;;;;;10.70;7.68;;;;;;;;;;5116170;27;20035;-87
2021/12/18 20:17:45;;;;;;;11.55;9.07;;;;;;;;;;5116017;27;20042;-86
2021/12/18 20:20:12;;;;;;;11.38;7.10;;;;;;;;;;5116006;27;20047;-86
2021/12/18 20:22:38;;;;;;;11.30;7.82;;;;;;;;;;5115803;27;20074;-87
2021/12/18 20:25:04;;;;;;;11.00;6.03;;;;;;;;;;5116272;27;20126;-87
2021/12/18 20:27:30;;;;;;;8.77;5.13;;;;;;;;;;5134414;27;20043;-87
2021/12/18 20:29:56;;;;;;;11.43;6.97;;;;;;;;;;5115948;27;20095;-86
2021/12/18 20:32:22;;;;;;;12.52;9.27;;;;;;;;;;5115704;27;20050;-86
2021/12/18 20:34:48;;;;;;;12.68;8.23;;;;;;;;;;5116106;27;20039;-86
2021/12/18 20:37:14;;;;;;;12.35;7.95;;;;;;;;;;5115648;27;20046;-87
2021/12/18 20:39:41;;;;;;;14.05;8.27;;;;;;;;;;5115992;27;20047;-88
2021/12/18 20:42:08;;;;;;;12.00;6.82;;;;;;;;;;5134078;27;20046;-87
2021/12/18 20:44:34;;;;;;;13.50;7.32;;;;;;;;;;5115704;27;20492;-86
2021/12/18 20:47:00;;;;;;;13.70;8.15;;;;;;;;;;5115476;27;20046;-87
2021/12/18 20:49:26;;;;;;;11.95;7.50;;;;;;;;;;5134087;27;20035;-87
2021/12/18 20:51:52;;;;;;;10.20;6.25;;;;;;;;;;5115386;27;20042;-89
2021/12/18 20:54:18;;;;;;;12.75;6.32;;;;;;;;;;5115812;27;20035;-86
2021/12/18 20:56:44;;;;;;;13.52;6.47;;;;;;;;;;5115316;27;20499;-87
2021/12/18 20:59:11;;;;;;;12.55;5.70;;;;;;;;;;5115868;27;20096;-88
2021/12/18 21:01:37;;;;;;;9.18;6.40;;;;;;;;;;5133905;27;20050;-86
